Time;durP1;ratioP1;P1;durP2;ratioP2;P2;SDS_P1;SDS_P2;PMS_P1;PMS_P2;Temp;Humidity;BMP_temperature;BMP_pressure;BME280_temperature;BME280_humidity;BME280_pressure;Samples;Min_cycle;Max_cycle;Signal;HPM_P1;HPM_P2
2021/11/23 00:00:36;;;;;;;10.57;6.43;;;;;;;6.40;100.00;102462.88;6230061;28;20256;-60
2021/11/23 00:03:59;;;;;;;8.43;5.23;;;;;;;6.70;100.00;102463.00;6228458;28;20236;-61
2021/11/23 00:07:20;;;;;;;8.47;5.20;;;;;;;6.38;100.00;102473.97;6224851;28;20194;-61
2021/11/23 00:10:42;;;;;;;9.10;4.57;;;;;;;6.39;100.00;102494.75;6225398;28;20224;-61
2021/11/23 00:14:03;;;;;;;8.17;4.17;;;;;;;6.54;100.00;102490.94;6228383;28;20221;-61
2021/11/23 00:17:24;;;;;;;5.67;4.30;;;;;;;6.44;100.00;102488.03;6233738;28;20232;-61
2021/11/23 00:20:47;;;;;;;5.37;3.90;;;;;;;6.69;100.00;102483.72;6230847;28;20248;-62
2021/11/23 00:24:10;;;;;;;8.20;4.50;;;;;;;6.99;100.00;102488.13;6230560;28;20504;-60
2021/11/23 00:27:31;;;;;;;8.07;4.90;;;;;;;7.40;99.62;102484.22;6231489;28;20634;-62
2021/11/23 00:30:52;;;;;;;5.10;3.73;;;;;;;7.28;99.47;102482.13;6229617;28;20587;-62
2021/11/23 00:34:13;;;;;;;10.37;4.37;;;;;;;6.92;100.00;102483.56;6232160;28;20251;-62
2021/11/23 00:37:36;;;;;;;4.73;4.30;;;;;;;6.64;100.00;102482.66;6226304;28;20224;-62
2021/11/23 00:40:56;;;;;;;10.30;5.63;;;;;;;6.30;100.00;102473.72;6231230;28;20228;-61
2021/11/23 00:44:19;;;;;;;4.80;4.30;;;;;;;6.75;100.00;102486.50;6228786;28;20518;-62
2021/11/23 00:47:41;;;;;;;7.23;5.43;;;;;;;6.53;100.00;102499.53;6232079;28;20196;-60
2021/11/23 00:51:03;;;;;;;5.33;4.83;;;;;;;6.77;100.00;102487.41;6231724;28;20252;-61
2021/11/23 00:54:25;;;;;;;7.63;4.93;;;;;;;6.68;100.00;102487.09;6227930;28;20234;-61
2021/11/23 00:57:46;;;;;;;8.10;4.23;;;;;;;6.78;100.00;102476.22;6231203;28;20307;-61
2021/11/23 01:01:07;;;;;;;5.50;4.30;;;;;;;6.67;100.00;102475.88;6221730;28;20225;-61
2021/11/23 01:04:28;;;;;;;6.40;4.43;;;;;;;6.81;100.00;102478.94;6215296;28;20232;-60
2021/11/23 01:07:49;;;;;;;6.70;4.03;;;;;;;7.08;100.00;102470.28;6225808;28;20512;-61
2021/11/23 01:11:12;;;;;;;4.83;4.07;;;;;;;6.84;100.00;102454.81;6214892;28;20225;-61
2021/11/23 01:14:35;;;;;;;4.47;4.13;;;;;;;6.86;100.00;102471.28;6221776;28;20679;-62
2021/11/23 01:17:56;;;;;;;4.60;3.90;;;;;;;6.80;100.00;102474.56;6237379;28;20217;-61
2021/11/23 01:21:17;;;;;;;4.53;4.13;;;;;;;6.88;100.00;102474.81;6230779;28;20225;-61
2021/11/23 01:24:39;;;;;;;6.37;5.80;;;;;;;7.07;100.00;102471.97;6231301;28;20224;-61
2021/11/23 01:28:01;;;;;;;10.13;7.17;;;;;;;7.24;100.00;102480.28;6236648;28;20201;-62
2021/11/23 01:31:22;;;;;;;7.80;7.10;;;;;;;7.22;100.00;102481.09;6231003;28;20224;-61
2021/11/23 01:34:43;;;;;;;8.50;7.33;;;;;;;7.06;100.00;102474.53;6234262;28;20252;-61
2021/11/23 01:38:04;;;;;;;9.50;6.77;;;;;;;7.22;100.00;102476.78;6236354;28;20229;-62
2021/11/23 01:41:25;;;;;;;8.17;6.43;;;;;;;7.20;100.00;102473.25;6230754;28;20287;-61
2021/11/23 01:44:47;;;;;;;7.97;7.27;;;;;;;7.18;100.00;102469.75;6232397;28;20236;-61
2021/11/23 01:48:10;;;;;;;8.53;7.60;;;;;;;7.27;100.00;102453.63;6234501;28;20678;-60
2021/11/23 01:51:31;;;;;;;11.20;7.87;;;;;;;7.36;100.00;102458.19;6205182;28;20225;-61
2021/11/23 01:54:52;;;;;;;11.57;9.47;;;;;;;7.30;100.00;102457.16;6231947;28;20228;-61
2021/11/23 01:58:14;;;;;;;9.50;8.70;;;;;;;7.14;100.00;102460.13;6231233;28;20717;-61
2021/11/23 02:01:37;;;;;;;10.93;9.33;;;;;;;7.21;100.00;102451.72;6227131;28;20954;-62
2021/11/23 02:04:58;;;;;;;10.53;9.43;;;;;;;7.37;100.00;102453.06;6233517;28;20221;-62
2021/11/23 02:08:19;;;;;;;11.10;9.13;;;;;;;7.32;100.00;102458.94;6232433;28;20193;-61
2021/11/23 02:11:40;;;;;;;8.20;7.07;;;;;;;7.68;100.00;102462.63;6230869;28;20221;-61
2021/11/23 02:15:01;;;;;;;9.97;8.07;;;;;;;7.92;100.00;102464.16;6230079;28;20280;-62
2021/11/23 02:18:24;;;;;;;12.67;9.63;;;;;;;7.95;100.00;102459.06;6229975;28;20277;-61
2021/11/23 02:21:46;;;;;;;11.33;8.23;;;;;;;7.76;100.00;102459.38;6222510;28;20316;-61
2021/11/23 02:25:09;;;;;;;10.20;9.20;;;;;;;7.87;100.00;102468.31;6225918;28;20233;-60
2021/11/23 02:28:31;;;;;;;9.87;8.90;;;;;;;7.73;100.00;102459.28;6227015;28;20205;-61
2021/11/23 02:31:52;;;;;;;10.93;9.63;;;;;;;7.86;100.00;102463.97;6222300;28;20197;-61
2021/11/23 02:35:13;;;;;;;10.10;8.20;;;;;;;8.17;100.00;102451.84;6223141;28;20240;-61
2021/11/23 02:38:37;;;;;;;14.23;9.43;;;;;;;7.82;100.00;102460.41;6222749;28;20217;-62
2021/11/23 02:41:58;;;;;;;9.93;8.93;;;;;;;7.66;100.00;102456.50;6220977;28;20193;-62
2021/11/23 02:45:21;;;;;;;8.90;8.00;;;;;;;7.51;100.00;102456.06;6216570;28;20224;-61
2021/11/23 02:48:42;;;;;;;11.70;9.77;;;;;;;7.61;100.00;102455.47;6223496;28;20283;-61
2021/11/23 02:52:08;;;;;;;10.07;8.50;;;;;;;7.32;100.00;102451.16;6226216;28;20209;-61
2021/11/23 02:55:33;;;;;;;10.80;8.97;;;;;;;7.63;100.00;102450.34;6228732;28;20534;-61
2021/11/23 02:58:54;;;;;;;9.97;9.07;;;;;;;7.80;100.00;102441.34;6223827;28;20646;-61
2021/11/23 03:02:16;;;;;;;11.93;10.67;;;;;;;7.50;100.00;102438.72;6225646;28;20204;-62
2021/11/23 03:05:39;;;;;;;10.40;9.33;;;;;;;7.98;100.00;102440.09;6222719;28;20224;-60
2021/11/23 03:09:00;;;;;;;9.63;8.57;;;;;;;7.43;100.00;102439.41;6227364;28;20241;-60
2021/11/23 03:12:25;;;;;;;9.53;8.63;;;;;;;7.88;100.00;102442.41;6226265;28;20247;-61
2021/11/23 03:15:46;;;;;;;9.97;8.97;;;;;;;7.57;100.00;102438.09;6226383;28;20220;-61
2021/11/23 03:19:07;;;;;;;9.57;8.67;;;;;;;8.15;100.00;102433.66;6224271;28;20236;-60
2021/11/23 03:22:28;;;;;;;8.87;8.00;;;;;;;8.35;100.00;102431.56;6223727;28;20189;-61
2021/11/23 03:25:49;;;;;;;10.30;8.53;;;;;;;8.02;100.00;102432.41;6225890;28;20233;-61
2021/11/23 03:29:11;;;;;;;9.83;8.87;;;;;;;7.69;100.00;102422.88;6224734;28;20528;-61
2021/11/23 03:32:32;;;;;;;11.57;10.37;;;;;;;7.65;100.00;102417.56;6223466;28;20209;-61
2021/11/23 03:35:53;;;;;;;10.77;9.67;;;;;;;7.63;100.00;102427.00;6222621;28;20229;-61
2021/11/23 03:39:14;;;;;;;10.53;9.43;;;;;;;7.81;100.00;102416.28;6223551;28;20247;-61
2021/11/23 03:42:35;;;;;;;12.40;11.33;;;;;;;7.55;100.00;102429.38;6225785;28;20232;-61
2021/11/23 03:45:57;;;;;;;12.80;11.00;;;;;;;7.61;100.00;102421.78;6222903;28;20225;-60
2021/11/23 03:49:18;;;;;;;14.07;10.40;;;;;;;7.75;100.00;102429.06;6223225;28;20694;-61
2021/11/23 03:52:40;;;;;;;15.20;10.47;;;;;;;7.89;100.00;102428.63;6224356;28;20252;-61
2021/11/23 03:56:01;;;;;;;11.57;10.23;;;;;;;7.94;100.00;102422.69;6222902;28;20232;-61
2021/11/23 03:59:22;;;;;;;15.33;11.77;;;;;;;7.84;100.00;102412.06;6228055;28;20228;-60
2021/11/23 04:02:46;;;;;;;11.73;10.53;;;;;;;7.61;100.00;102408.81;6219053;28;20217;-62
2021/11/23 04:06:07;;;;;;;12.10;10.87;;;;;;;7.63;100.00;102411.44;6224062;28;20738;-60
2021/11/23 04:09:28;;;;;;;11.70;10.60;;;;;;;7.64;100.00;102427.06;6225690;28;20623;-61
2021/11/23 04:12:51;;;;;;;11.60;10.20;;;;;;;7.75;100.00;102416.09;6224395;28;20225;-60
2021/11/23 04:16:11;;;;;;;12.37;11.10;;;;;;;7.47;100.00;102425.69;6222269;28;20224;-61
2021/11/23 04:19:36;;;;;;;12.60;11.37;;;;;;;7.62;100.00;102420.97;6225508;28;20327;-61
2021/11/23 04:22:57;;;;;;;11.43;10.00;;;;;;;7.53;100.00;102423.28;6223618;28;20216;-61
2021/11/23 04:26:18;;;;;;;12.60;11.30;;;;;;;7.25;100.00;102425.06;6226714;28;20614;-62
2021/11/23 04:29:39;;;;;;;14.50;12.93;;;;;;;7.75;100.00;102431.66;6225285;28;20684;-61
2021/11/23 04:33:00;;;;;;;14.70;12.80;;;;;;;7.87;100.00;102442.38;6227008;28;20272;-61
2021/11/23 04:36:22;;;;;;;14.13;12.70;;;;;;;7.95;100.00;102434.81;6224821;28;20746;-61
2021/11/23 04:39:43;;;;;;;18.20;13.27;;;;;;;7.99;100.00;102441.88;6215273;28;20241;-60
2021/11/23 04:43:06;;;;;;;17.43;14.37;;;;;;;7.43;100.00;102440.28;6222616;28;20205;-61
2021/11/23 04:46:27;;;;;;;16.67;14.03;;;;;;;7.82;100.00;102449.16;6219652;28;20259;-60
2021/11/23 04:49:48;;;;;;;18.87;14.67;;;;;;;7.78;100.00;102455.09;6223506;28;20225;-61
2021/11/23 04:53:10;;;;;;;15.77;13.73;;;;;;;7.64;100.00;102445.22;6223938;28;20225;-61
2021/11/23 04:56:32;;;;;;;21.60;15.30;;;;;;;7.86;100.00;102448.41;6199592;28;20289;-61
2021/11/23 04:59:53;;;;;;;20.13;15.73;;;;;;;8.24;100.00;102456.38;6227483;28;20233;-60
2021/11/23 05:03:13;;;;;;;20.37;15.83;;;;;;;8.01;100.00;102458.34;6223971;28;20189;-62
2021/11/23 05:06:34;;;;;;;22.80;15.93;;;;;;;7.94;100.00;102459.00;6220764;28;20253;-62
2021/11/23 05:09:57;;;;;;;23.90;17.27;;;;;;;7.82;100.00;102456.94;6219884;28;20232;-62
2021/11/23 05:13:18;;;;;;;23.77;17.90;;;;;;;7.88;100.00;102458.00;6220060;28;20564;-61
2021/11/23 05:16:39;;;;;;;20.47;16.27;;;;;;;8.10;100.00;102458.59;6220630;28;20229;-60
2021/11/23 05:20:00;;;;;;;20.47;18.30;;;;;;;8.02;100.00;102453.19;6234733;28;20228;-60
2021/11/23 05:23:21;;;;;;;25.97;17.80;;;;;;;8.23;100.00;102459.81;6235936;28;20598;-61
2021/11/23 05:26:43;;;;;;;24.77;16.60;;;;;;;7.98;100.00;102455.66;6234139;28;20598;-60
2021/11/23 05:30:05;;;;;;;22.67;15.30;;;;;;;7.92;100.00;102451.19;6235769;28;20233;-61
2021/11/23 05:33:27;;;;;;;19.97;17.27;;;;;;;8.03;100.00;102462.75;6229755;28;21023;-61
2021/11/23 05:36:48;;;;;;;19.97;15.83;;;;;;;8.40;100.00;102455.94;6226937;28;20221;-61
2021/11/23 05:40:11;;;;;;;17.23;12.40;;;;;;;8.64;100.00;102467.81;6226107;28;20244;-61
2021/11/23 05:43:33;;;;;;;20.20;14.10;;;;;;;8.63;100.00;102455.69;6222076;28;20205;-60
2021/11/23 05:46:54;;;;;;;18.13;12.63;;;;;;;8.80;100.00;102456.09;6225354;28;20516;-60
2021/11/23 05:50:15;;;;;;;14.73;11.47;;;;;;;8.66;100.00;102455.75;6223982;28;20244;-61
2021/11/23 05:53:39;;;;;;;16.97;9.87;;;;;;;8.74;100.00;102461.13;6220834;28;20274;-61
2021/11/23 05:57:01;;;;;;;13.43;10.07;;;;;;;8.81;100.00;102448.34;6224031;28;20276;-62
2021/11/23 06:00:23;;;;;;;9.60;8.37;;;;;;;8.61;100.00;102445.25;6221659;28;20530;-61
2021/11/23 06:03:44;;;;;;;10.63;7.07;;;;;;;8.52;100.00;102444.16;6223559;28;20197;-60
2021/11/23 06:07:06;;;;;;;7.83;6.30;;;;;;;8.60;100.00;102453.00;6220544;28;20298;-61
2021/11/23 06:10:26;;;;;;;7.73;6.93;;;;;;;8.57;100.00;102463.28;6224680;28;20335;-61
2021/11/23 06:13:48;;;;;;;9.03;6.30;;;;;;;8.47;100.00;102465.69;6237124;28;20233;-61
2021/11/23 06:17:11;;;;;;;9.73;6.33;;;;;;;8.55;100.00;102460.69;6234728;28;20737;-60
2021/11/23 06:20:33;;;;;;;10.33;7.47;;;;;;;8.75;100.00;102463.78;6236620;28;20232;-60
2021/11/23 06:23:54;;;;;;;8.63;6.23;;;;;;;8.68;100.00;102477.44;6233903;28;20752;-61
2021/11/23 06:27:15;;;;;;;10.87;6.30;;;;;;;8.79;100.00;102469.94;6245636;28;20376;-62
2021/11/23 06:30:36;;;;;;;7.37;5.27;;;;;;;8.83;100.00;102474.34;6238494;28;20244;-61
2021/11/23 06:33:59;;;;;;;10.47;6.00;;;;;;;9.10;100.00;102481.94;6240354;28;20232;-61
2021/11/23 06:37:20;;;;;;;7.67;5.03;;;;;;;9.11;100.00;102481.13;6232748;28;20197;-61
2021/11/23 06:40:42;;;;;;;7.10;3.83;;;;;;;8.90;100.00;102488.38;6239816;28;20221;-61
2021/11/23 06:44:04;;;;;;;8.03;3.80;;;;;;;8.77;100.00;102506.25;6231971;28;20505;-62
2021/11/23 06:47:25;;;;;;;5.63;4.07;;;;;;;8.85;100.00;102503.84;6235855;28;20878;-62
2021/11/23 06:50:47;;;;;;;6.47;3.93;;;;;;;9.24;100.00;102496.13;6228849;28;20962;-61
2021/11/23 06:54:08;;;;;;;4.23;3.23;;;;;;;9.33;100.00;102500.69;6225905;28;20252;-61
2021/11/23 06:57:29;;;;;;;8.83;4.17;;;;;;;9.32;100.00;102492.84;6227956;28;20634;-62
2021/11/23 07:00:50;;;;;;;5.50;3.37;;;;;;;9.17;100.00;102496.84;6223774;28;20240;-62
2021/11/23 07:04:11;;;;;;;9.83;3.97;;;;;;;9.12;100.00;102500.19;6228367;28;20237;-61
2021/11/23 07:07:33;;;;;;;8.50;3.83;;;;;;;8.81;100.00;102504.63;6224792;28;20231;-62
2021/11/23 07:10:54;;;;;;;7.40;3.37;;;;;;;9.16;100.00;102509.81;6224670;28;20233;-61
2021/11/23 07:14:16;;;;;;;7.40;3.70;;;;;;;9.16;99.92;102509.81;6235233;28;20221;-61
2021/11/23 07:17:37;;;;;;;8.00;3.33;;;;;;;9.18;99.71;102511.59;6231285;28;20237;-62
2021/11/23 07:20:58;;;;;;;8.20;3.40;;;;;;;9.09;99.89;102511.34;6224066;28;20232;-61
2021/11/23 07:24:21;;;;;;;8.27;3.67;;;;;;;9.06;100.00;102519.09;6233372;28;20601;-61
2021/11/23 07:27:43;;;;;;;4.90;3.47;;;;;;;9.08;100.00;102520.00;6230988;28;20232;-61
2021/11/23 07:31:04;;;;;;;9.93;4.63;;;;;;;9.06;100.00;102524.28;6224747;28;20518;-61
2021/11/23 07:34:25;;;;;;;7.80;5.10;;;;;;;9.25;99.86;102536.03;6229378;28;20233;-62
2021/11/23 07:37:47;;;;;;;11.43;4.53;;;;;;;9.15;100.00;102529.72;6229935;28;20227;-62
2021/11/23 07:41:09;;;;;;;10.67;4.77;;;;;;;9.07;100.00;102533.84;6232865;28;20225;-60
2021/11/23 07:44:30;;;;;;;7.33;3.97;;;;;;;9.08;100.00;102530.41;6236257;28;20220;-62
2021/11/23 07:47:51;;;;;;;7.10;4.03;;;;;;;9.33;100.00;102531.88;6226071;28;20197;-62
2021/11/23 07:51:12;;;;;;;13.30;5.67;;;;;;;9.22;98.94;102544.59;6226439;28;20236;-62
2021/11/23 07:54:34;;;;;;;17.03;12.10;;;;;;;8.90;100.00;102538.63;6225231;28;20255;-62
2021/11/23 07:57:56;;;;;;;10.47;7.20;;;;;;;9.34;100.00;102535.34;6230975;28;20598;-61
2021/11/23 08:01:17;;;;;;;9.40;4.82;;;;;;;9.61;99.02;102533.38;6228798;28;20746;-61
2021/11/23 08:04:38;;;;;;;8.40;4.40;;;;;;;11.56;89.09;102525.66;6236660;28;20227;-62
2021/11/23 08:07:59;;;;;;;12.33;3.90;;;;;;;12.60;78.90;102538.22;6237124;28;20505;-62
2021/11/23 08:11:20;;;;;;;14.77;3.73;;;;;;;14.07;70.63;102524.44;6227218;28;20237;-62
2021/11/23 08:14:42;;;;;;;5.17;2.93;;;;;;;15.04;62.03;102525.47;6225408;28;20233;-62
2021/11/23 08:18:04;;;;;;;7.20;3.27;;;;;;;15.16;61.83;102525.50;6230878;28;20221;-62
2021/11/23 08:21:29;;;;;;;6.33;2.70;;;;;;;15.46;58.03;102528.94;6218611;28;20275;-62
2021/11/23 08:24:50;;;;;;;5.97;2.60;;;;;;;15.43;59.74;102536.84;6214673;28;20237;-62
2021/11/23 08:28:11;;;;;;;3.73;2.40;;;;;;;13.95;64.46;102539.22;6226882;28;20602;-62
2021/11/23 08:31:35;;;;;;;5.90;2.03;;;;;;;13.86;64.83;102541.84;6222031;28;20613;-61
2021/11/23 08:34:56;;;;;;;6.60;2.13;;;;;;;13.67;64.96;102537.38;6226961;28;20321;-61
2021/11/23 08:38:17;;;;;;;4.50;2.07;;;;;;;15.45;59.13;102545.59;6216411;28;20209;-62
2021/11/23 08:41:38;;;;;;;5.80;2.17;;;;;;;14.46;61.84;102541.13;6221391;28;20681;-62
2021/11/23 08:45:00;;;;;;;4.73;2.33;;;;;;;14.84;60.78;102540.38;6224991;28;20386;-61
2021/11/23 08:48:22;;;;;;;3.63;2.20;;;;;;;14.13;61.90;102545.41;6229350;28;20288;-61
2021/11/23 08:51:42;;;;;;;2.65;1.83;;;;;;;14.34;60.51;102550.72;6196687;28;20235;-62
2021/11/23 08:55:05;;;;;;;4.45;2.45;;;;;;;16.26;56.55;102538.28;6218766;28;20217;-61
2021/11/23 08:58:26;;;;;;;4.63;2.20;;;;;;;17.42;50.59;102541.81;6213660;28;20233;-61
2021/11/23 09:01:48;;;;;;;6.15;3.92;;;;;;;18.44;48.26;102545.88;6214571;28;20221;-62
2021/11/23 09:05:12;;;;;;;7.15;2.20;;;;;;;17.21;50.64;102547.28;6221273;28;20244;-62
2021/11/23 09:08:34;;;;;;;3.05;1.85;;;;;;;20.27;44.01;102535.47;6222825;28;20236;-62
2021/11/23 09:11:56;;;;;;;6.03;2.40;;;;;;;19.71;43.80;102540.16;6220431;28;20543;-61
2021/11/23 09:15:18;;;;;;;4.95;2.15;;;;;;;17.88;48.29;102546.59;6224350;28;20557;-61
2021/11/23 09:18:39;;;;;;;6.78;2.50;;;;;;;14.68;57.38;102563.09;6220397;28;20225;-61
2021/11/23 09:22:03;;;;;;;4.63;2.60;;;;;;;14.08;62.95;102565.50;6221345;28;20196;-61
2021/11/23 09:25:24;;;;;;;5.65;3.08;;;;;;;12.24;72.39;102573.56;6224675;28;20229;-63
2021/11/23 09:28:46;;;;;;;6.33;2.80;;;;;;;12.56;71.89;102570.41;6217199;28;20566;-61
2021/11/23 09:32:07;;;;;;;6.17;2.80;;;;;;;12.52;71.71;102584.31;6222497;28;20205;-61
2021/11/23 09:35:28;;;;;;;6.43;4.00;;;;;;;15.98;59.59;102571.72;6231741;28;20236;-62
2021/11/23 09:38:51;;;;;;;8.57;4.17;;;;;;;15.30;58.40;102570.09;6223488;28;20205;-62
2021/11/23 09:42:12;;;;;;;6.80;3.05;;;;;;;17.11;53.63;102584.22;6222444;28;20208;-62
2021/11/23 09:45:33;;;;;;;5.93;4.00;;;;;;;17.52;49.83;102577.72;6224111;28;20236;-62
2021/11/23 09:48:55;;;;;;;4.68;3.05;;;;;;;18.00;48.47;102568.44;6222427;28;20217;-62
2021/11/23 09:52:16;;;;;;;6.68;3.70;;;;;;;18.12;47.45;102570.03;6231310;28;20232;-62
2021/11/23 09:55:40;;;;;;;4.53;2.50;;;;;;;19.89;44.14;102559.22;6232397;28;21860;-63
2021/11/23 09:59:01;;;;;;;5.60;3.78;;;;;;;18.18;46.68;102570.81;6232466;28;20327;-62
2021/11/23 10:02:26;;;;;;;5.07;3.20;;;;;;;18.93;44.72;102566.25;6228680;28;20936;-62
2021/11/23 10:05:48;;;;;;;5.85;3.55;;;;;;;19.45;43.85;102565.34;6232616;28;20228;-62
2021/11/23 10:09:09;;;;;;;4.70;3.63;;;;;;;17.11;48.75;102564.91;6231064;28;20236;-62
2021/11/23 10:12:31;;;;;;;5.72;3.20;;;;;;;15.01;56.63;102572.72;6231198;28;20261;-62
2021/11/23 10:15:53;;;;;;;8.93;3.45;;;;;;;18.08;50.22;102569.19;6232489;28;20220;-62
2021/11/23 10:19:15;;;;;;;7.43;3.13;;;;;;;15.02;55.96;102569.22;6231291;28;20228;-62
2021/11/23 10:22:39;;;;;;;7.63;3.30;;;;;;;15.85;55.12;102563.88;6235843;28;20200;-62
2021/11/23 10:26:08;;;;;;;5.68;2.70;;;;;;;17.73;47.48;102557.28;6233574;28;20232;-63
2021/11/23 10:29:30;;;;;;;5.88;2.47;;;;;;;16.00;52.85;102562.94;6232758;28;20502;-62
2021/11/23 10:32:53;;;;;;;4.32;2.72;;;;;;;15.86;55.75;102570.88;6231261;28;20193;-60
2021/11/23 10:36:16;;;;;;;5.60;1.95;;;;;;;15.45;58.32;102569.22;6218523;28;20224;-60
2021/11/23 10:39:37;;;;;;;5.60;3.40;;;;;;;12.77;69.02;102581.09;6212874;28;20536;-61
2021/11/23 10:43:00;;;;;;;5.20;3.03;;;;;;;13.04;69.01;102576.13;6220467;28;20224;-63
2021/11/23 10:46:23;;;;;;;7.07;2.97;;;;;;;13.28;68.17;102570.19;6229700;28;20224;-61
2021/11/23 10:49:46;;;;;;;6.40;2.77;;;;;;;12.79;70.76;102576.78;6228113;28;20771;-61
2021/11/23 10:53:09;;;;;;;6.43;2.40;;;;;;;12.56;72.88;102570.41;6229015;28;20477;-62
2021/11/23 10:56:30;;;;;;;5.90;2.07;;;;;;;12.87;70.42;102574.25;6231283;28;20241;-60
2021/11/23 10:59:51;;;;;;;5.50;2.50;;;;;;;13.00;69.35;102567.38;6228317;28;20232;-62
2021/11/23 11:03:16;;;;;;;6.70;2.33;;;;;;;12.67;71.15;102565.31;6226305;28;20201;-63
2021/11/23 11:06:37;;;;;;;9.93;3.13;;;;;;;12.71;70.87;102567.97;6233430;28;20247;-62
2021/11/23 11:09:59;;;;;;;5.87;1.80;;;;;;;12.18;74.73;102563.91;6235136;28;20222;-62
2021/11/23 11:13:22;;;;;;;3.87;1.50;;;;;;;13.49;70.05;102559.94;6230615;28;20209;-62
2021/11/23 11:16:43;;;;;;;5.73;2.20;;;;;;;15.12;62.45;102563.13;6227283;28;20264;-62
2021/11/23 11:20:09;;;;;;;6.23;2.10;;;;;;;13.30;68.08;102573.75;6227793;28;20491;-61
2021/11/23 11:23:32;;;;;;;5.43;2.33;;;;;;;14.25;64.54;102553.34;6229792;28;20232;-62
2021/11/23 11:26:56;;;;;;;4.33;2.47;;;;;;;12.94;70.28;102564.72;6236193;28;20208;-63
2021/11/23 11:30:31;;;;;;;4.30;2.00;;;;;;;12.06;75.57;102560.25;6234466;28;20323;-62
2021/11/23 11:34:11;;;;;;;6.53;2.70;;;;;;;12.99;72.22;102565.63;6233307;28;20625;-62
2021/11/23 11:37:36;;;;;;;5.10;2.30;;;;;;;14.65;63.55;102552.56;6226525;28;20760;-61
2021/11/23 11:40:59;;;;;;;4.43;2.23;;;;;;;14.23;65.41;102552.44;6231817;28;20975;-62
2021/11/23 11:44:21;;;;;;;5.17;2.30;;;;;;;13.86;66.14;102554.03;6235590;28;20245;-61
2021/11/23 11:47:44;;;;;;;6.33;2.13;;;;;;;16.73;57.95;102552.94;6231612;28;20245;-62
2021/11/23 11:51:07;;;;;;;9.97;2.23;;;;;;;16.38;55.19;102545.25;6234588;28;20217;-61
2021/11/23 11:54:29;;;;;;;6.97;2.40;;;;;;;13.27;66.48;102564.09;6237275;28;20671;-62
2021/11/23 11:57:52;;;;;;;5.03;2.47;;;;;;;11.94;76.90;102561.88;6230897;28;20208;-62
2021/11/23 12:01:25;;;;;;;6.17;2.67;;;;;;;12.30;76.17;102565.78;6225394;28;20342;-63
2021/11/23 12:04:59;;;;;;;5.30;2.53;;;;;;;12.57;78.71;102572.19;6221110;28;20240;-62
2021/11/23 12:08:25;;;;;;;3.87;2.33;;;;;;;12.19;79.99;102559.56;6224773;28;20200;-61
2021/11/23 12:11:47;;;;;;;2.97;1.40;;;;;;;11.95;81.18;102558.41;6228027;28;20575;-60
2021/11/23 12:15:37;;;;;;;3.70;1.23;;;;;;;12.23;79.64;102558.72;6236593;28;20237;-62
2021/11/23 12:19:11;;;;;;;2.40;1.33;;;;;;;11.94;79.97;102561.88;6232216;28;21547;-61
2021/11/23 12:22:39;;;;;;;1.50;1.13;;;;;;;11.93;79.63;102556.63;6233814;28;20324;-61
2021/11/23 12:26:03;;;;;;;2.63;1.03;;;;;;;11.89;78.42;102553.09;6237913;28;20500;-61
2021/11/23 12:29:31;;;;;;;4.53;2.60;;;;;;;11.76;80.01;102556.38;6237790;28;20224;-61
2021/11/23 12:32:51;;;;;;;6.37;5.70;;;;;;;11.81;80.07;102550.34;6237860;28;20193;-63
2021/11/23 12:36:15;;;;;;;5.17;2.37;;;;;;;11.69;80.81;102554.53;6234581;28;20216;-61
2021/11/23 12:39:38;;;;;;;1.77;1.30;;;;;;;11.90;79.74;102548.75;6225762;28;20229;-61
2021/11/23 12:43:04;;;;;;;3.77;1.40;;;;;;;11.89;78.89;102542.66;6221663;28;20279;-63
2021/11/23 12:46:28;;;;;;;9.77;1.60;;;;;;;11.80;79.80;102539.88;6225316;28;20804;-61
2021/11/23 12:49:55;;;;;;;2.60;1.53;;;;;;;12.38;77.28;102545.84;6226589;28;20328;-62
2021/11/23 12:53:17;;;;;;;4.27;1.67;;;;;;;12.85;75.07;102543.69;6231055;28;20306;-61
2021/11/23 12:56:50;;;;;;;4.07;1.93;;;;;;;13.42;71.23;102545.06;6227052;28;20229;-61
2021/11/23 13:00:12;;;;;;;5.60;1.87;;;;;;;13.31;71.42;102546.72;6221168;28;20229;-63
2021/11/23 13:03:35;;;;;;;18.97;2.43;;;;;;;12.69;72.97;102543.56;6223364;28;20201;-60
2021/11/23 13:07:07;;;;;;;6.47;2.00;;;;;;;12.77;73.77;102549.72;6237372;28;20208;-63
2021/11/23 13:10:30;;;;;;;5.60;1.40;;;;;;;12.20;74.96;102537.81;6224250;28;20223;-62
2021/11/23 13:13:51;;;;;;;5.17;2.27;;;;;;;12.50;74.34;102546.84;6213936;28;20237;-62
2021/11/23 13:17:12;;;;;;;6.57;1.80;;;;;;;12.82;73.79;102543.69;6225789;28;20360;-60
2021/11/23 13:20:42;;;;;;;5.57;1.83;;;;;;;12.47;73.15;102539.00;6221589;28;20236;-63
2021/11/23 13:24:03;;;;;;;8.87;1.90;;;;;;;12.34;74.19;102536.22;6218998;28;20327;-61
2021/11/23 13:27:25;;;;;;;2.60;1.20;;;;;;;12.37;73.68;102541.50;6218508;28;20205;-61
2021/11/23 13:30:55;;;;;;;9.67;2.30;;;;;;;11.89;75.59;102537.44;6217460;28;20355;-61
2021/11/23 13:34:21;;;;;;;9.30;2.67;;;;;;;11.87;76.34;102528.69;6216221;28;20237;-61
2021/11/23 13:37:43;;;;;;;7.30;1.40;;;;;;;11.66;77.77;102528.41;6224554;28;20517;-61
2021/11/23 13:41:20;;;;;;;7.27;2.37;;;;;;;11.72;77.65;102523.25;6224214;28;20221;-61
2021/11/23 13:44:41;;;;;;;3.53;1.53;;;;;;;11.41;79.13;102533.25;6239507;28;20244;-61
2021/11/23 13:48:13;;;;;;;8.03;1.93;;;;;;;11.40;81.67;102527.16;6239247;28;20189;-61
2021/11/23 13:51:35;;;;;;;7.80;2.97;;;;;;;11.41;81.55;102530.66;6208309;28;20323;-61
2021/11/23 13:54:58;;;;;;;5.27;1.80;;;;;;;11.27;82.29;102534.78;6241792;28;20323;-63
2021/11/23 13:58:20;;;;;;;4.87;1.70;;;;;;;11.28;83.28;102528.72;6233857;28;20209;-61
2021/11/23 14:01:52;;;;;;;3.10;1.57;;;;;;;11.46;81.72;102522.88;6234312;28;20216;-62
2021/11/23 14:05:15;;;;;;;5.83;1.70;;;;;;;11.52;81.21;102525.59;6228179;28;20225;-62
2021/11/23 14:08:37;;;;;;;6.30;1.30;;;;;;;11.88;79.03;102527.81;6235905;28;20242;-62
2021/11/23 14:12:02;;;;;;;6.83;1.90;;;;;;;11.99;78.29;102525.38;6234662;28;20197;-62
2021/11/23 14:15:23;;;;;;;6.10;1.53;;;;;;;11.76;77.51;102525.03;6229170;28;20220;-61
2021/11/23 14:18:47;;;;;;;6.23;2.37;;;;;;;11.57;78.38;102526.53;6226963;28;20212;-61
2021/11/23 14:22:08;;;;;;;10.17;2.53;;;;;;;11.39;79.42;102529.75;6216789;28;20248;-61
2021/11/23 14:25:29;;;;;;;8.10;3.93;;;;;;;11.49;78.72;102530.75;6206516;28;20243;-62
2021/11/23 14:28:53;;;;;;;7.63;2.50;;;;;;;11.41;78.33;102533.25;6232824;28;20244;-61
2021/11/23 14:32:14;;;;;;;5.77;3.17;;;;;;;11.29;78.59;102530.47;6225784;28;20212;-62
2021/11/23 14:35:35;;;;;;;8.27;3.00;;;;;;;11.11;79.53;102536.25;6233358;28;20225;-62
2021/11/23 14:38:57;;;;;;;4.23;2.33;;;;;;;11.14;79.51;102529.38;6233370;28;20227;-62
2021/11/23 14:42:18;;;;;;;7.13;2.57;;;;;;;11.27;78.69;102530.44;6238577;28;20221;-62
2021/11/23 14:45:40;;;;;;;5.73;2.43;;;;;;;10.91;81.20;102528.13;6245328;28;20228;-62
2021/11/23 14:49:01;;;;;;;3.77;1.80;;;;;;;11.24;83.22;102538.22;6240920;28;20318;-61
2021/11/23 14:52:22;;;;;;;7.07;1.90;;;;;;;10.88;81.23;102541.13;6235137;28;20221;-61
2021/11/23 14:55:45;;;;;;;4.23;2.73;;;;;;;11.22;81.30;102532.09;6228639;28;20613;-62
2021/11/23 14:59:05;;;;;;;7.67;2.57;;;;;;;10.80;80.56;102539.25;6231142;28;20763;-61
2021/11/23 15:02:28;;;;;;;7.67;2.37;;;;;;;10.66;82.11;102537.22;6232850;28;20225;-61
2021/11/23 15:05:51;;;;;;;5.30;1.90;;;;;;;10.79;80.75;102540.09;6233424;28;20229;-63
2021/11/23 15:09:12;;;;;;;4.97;1.30;;;;;;;10.57;81.89;102537.97;6233817;28;20225;-63
2021/11/23 15:12:33;;;;;;;6.67;2.37;;;;;;;10.46;82.51;102536.88;6230023;28;20280;-63
2021/11/23 15:15:54;;;;;;;2.33;1.43;;;;;;;10.48;82.23;102545.59;6227786;28;20595;-62
2021/11/23 15:19:16;;;;;;;3.27;1.50;;;;;;;10.37;82.29;102543.69;6229804;28;20523;-62
2021/11/23 15:22:37;;;;;;;7.20;2.33;;;;;;;10.20;83.93;102545.03;6228653;28;20281;-62
2021/11/23 15:25:59;;;;;;;5.10;1.40;;;;;;;10.27;83.81;102539.06;6225916;28;20225;-62
2021/11/23 15:29:21;;;;;;;4.87;2.47;;;;;;;10.51;82.57;102543.06;6217916;28;20236;-63
2021/11/23 15:32:43;;;;;;;5.97;2.03;;;;;;;10.43;83.63;102542.91;6239452;28;20478;-62
2021/11/23 15:36:06;;;;;;;3.83;1.20;;;;;;;10.46;83.66;102548.16;6240927;28;20253;-62